createdAt,value
2018-09-29T00:00:03.893Z,1014.9
2018-09-29T00:01:05.256Z,1015.0
2018-09-29T00:02:06.611Z,1015.0
2018-09-29T00:03:08.002Z,1015.0
2018-09-29T00:04:09.310Z,1015.0
2018-09-29T00:05:10.677Z,1015.0
2018-09-29T00:06:12.036Z,1015.0
2018-09-29T00:07:13.395Z,1015.0
2018-09-29T00:08:14.746Z,1015.0
2018-09-29T00:09:16.121Z,1015.0
2018-09-29T00:10:17.546Z,1015.0
2018-09-29T00:11:18.799Z,1015.0
2018-09-29T00:12:20.144Z,1015.0
2018-09-29T00:13:21.509Z,1015.0
2018-09-29T00:14:22.856Z,1015.0
2018-09-29T00:15:24.225Z,1015.0
2018-09-29T00:16:25.590Z,1015.1
2018-09-29T00:17:26.921Z,1015.1
2018-09-29T00:18:28.288Z,1015.1
2018-09-29T00:19:29.629Z,1015.1
2018-09-29T00:20:31.001Z,1015.1
2018-09-29T00:21:32.346Z,1015.1
2018-09-29T00:22:33.718Z,1015.1
2018-09-29T00:23:35.075Z,1015.1
2018-09-29T00:24:36.424Z,1015.1
2018-09-29T00:25:37.775Z,1015.1
2018-09-29T00:26:39.134Z,1015.1
2018-09-29T00:27:40.485Z,1015.1
2018-09-29T00:28:41.845Z,1015.1
2018-09-29T00:29:43.803Z,1015.1
2018-09-29T00:30:45.149Z,1015.1
2018-09-29T00:31:46.520Z,1015.1
2018-09-29T00:32:47.866Z,1015.1
2018-09-29T00:33:49.234Z,1015.1
2018-09-29T00:34:50.593Z,1015.0
2018-09-29T00:35:51.953Z,1015.1
2018-09-29T00:36:53.315Z,1015.1
2018-09-29T00:37:54.671Z,1015.1
2018-09-29T00:38:56.022Z,1015.0
2018-09-29T00:39:57.372Z,1015.0
2018-09-29T00:40:58.743Z,1015.1
2018-09-29T00:42:00.105Z,1015.1
2018-09-29T00:43:01.450Z,1015.1
2018-09-29T00:44:02.835Z,1015.1
2018-09-29T00:45:04.201Z,1015.1
2018-09-29T00:46:05.555Z,1015.1
2018-09-29T00:47:06.904Z,1015.1
2018-09-29T00:48:08.249Z,1015.0
2018-09-29T00:49:09.615Z,1015.0
2018-09-29T00:50:10.961Z,1015.0
2018-09-29T00:51:12.320Z,1015.0
2018-09-29T00:52:13.669Z,1015.0
2018-09-29T00:53:15.029Z,1015.0
2018-09-29T00:54:16.380Z,1015.0
2018-09-29T00:55:17.742Z,1014.9
2018-09-29T00:56:19.105Z,1014.9
2018-09-29T00:57:20.456Z,1014.9
2018-09-29T00:58:21.809Z,1014.9
2018-09-29T00:59:23.171Z,1014.9
2018-09-29T01:00:24.534Z,1014.9
2018-09-29T01:01:25.880Z,1015.0
2018-09-29T01:02:27.238Z,1014.9
2018-09-29T01:03:28.593Z,1014.9
2018-09-29T01:04:29.949Z,1014.9
2018-09-29T01:05:32.206Z,1014.9
2018-09-29T01:06:33.557Z,1014.8
2018-09-29T01:07:34.929Z,1014.8
2018-09-29T01:08:36.275Z,1014.8
2018-09-29T01:09:37.621Z,1014.8
2018-09-29T01:10:38.975Z,1014.8
2018-09-29T01:11:40.326Z,1014.8
2018-09-29T01:12:41.685Z,1014.8
2018-09-29T01:13:43.041Z,1014.7
2018-09-29T01:14:44.396Z,1014.7
2018-09-29T01:15:45.749Z,1014.7
2018-09-29T01:16:47.099Z,1014.7
2018-09-29T01:17:48.479Z,1014.7
2018-09-29T01:18:49.825Z,1014.6
2018-09-29T01:19:51.184Z,1014.6
2018-09-29T01:20:52.526Z,1014.6
2018-09-29T01:21:53.875Z,1014.6
2018-09-29T01:22:55.235Z,1014.6
2018-09-29T01:23:56.585Z,1014.6
2018-09-29T01:24:57.942Z,1014.6
2018-09-29T01:25:59.297Z,1014.5
2018-09-29T01:27:01.518Z,1014.5
2018-09-29T01:28:02.867Z,1014.5
2018-09-29T01:29:04.229Z,1014.5
2018-09-29T01:30:05.595Z,1014.5
2018-09-29T01:31:06.946Z,1014.4
2018-09-29T01:32:08.301Z,1014.4
2018-09-29T01:33:09.645Z,1014.5
2018-09-29T01:34:11.004Z,1014.5
2018-09-29T01:35:12.358Z,1014.5
2018-09-29T01:36:13.706Z,1014.5
2018-09-29T01:37:15.062Z,1014.5
2018-09-29T01:38:16.408Z,1014.5
2018-09-29T01:39:17.773Z,1014.4
2018-09-29T01:40:19.122Z,1014.4
2018-09-29T01:41:20.479Z,1014.4
2018-09-29T01:42:21.836Z,1014.5
2018-09-29T01:43:23.199Z,1014.5
2018-09-29T01:44:24.543Z,1014.4
2018-09-29T01:45:25.901Z,1014.4
2018-09-29T01:46:27.252Z,1014.5
2018-09-29T01:47:28.606Z,1014.5
2018-09-29T01:48:29.977Z,1014.5
2018-09-29T01:49:31.327Z,1014.4
2018-09-29T01:50:32.677Z,1014.5
2018-09-29T01:51:34.035Z,1014.5
2018-09-29T01:52:35.396Z,1014.5
2018-09-29T01:53:36.751Z,1014.5
2018-09-29T01:54:38.112Z,1014.5
2018-09-29T01:55:39.508Z,1014.5
2018-09-29T01:56:40.853Z,1014.5
2018-09-29T01:57:42.227Z,1014.5
2018-09-29T01:58:43.585Z,1014.6
2018-09-29T01:59:44.937Z,1014.6
2018-09-29T02:00:46.300Z,1014.6
2018-09-29T02:01:47.665Z,1014.6
2018-09-29T02:02:49.026Z,1014.6
2018-09-29T02:03:50.386Z,1014.6
2018-09-29T02:04:51.743Z,1014.6
2018-09-29T02:05:53.119Z,1014.6
2018-09-29T02:06:54.492Z,1014.6
2018-09-29T02:07:55.863Z,1014.6
2018-09-29T02:08:57.246Z,1014.7
2018-09-29T02:09:58.600Z,1014.7
2018-09-29T02:10:59.970Z,1014.7
2018-09-29T02:12:01.331Z,1014.7
2018-09-29T02:13:02.682Z,1014.7
2018-09-29T02:14:04.040Z,1014.6
2018-09-29T02:15:05.389Z,1014.7
2018-09-29T02:16:06.740Z,1014.7
2018-09-29T02:17:08.107Z,1014.7
2018-09-29T02:18:09.488Z,1014.6
2018-09-29T02:19:10.842Z,1014.6
2018-09-29T02:20:12.207Z,1014.6
2018-09-29T02:21:13.565Z,1014.5
2018-09-29T02:22:14.918Z,1014.5
2018-09-29T02:23:16.267Z,1014.6
2018-09-29T02:24:17.632Z,1014.6
2018-09-29T02:25:18.988Z,1014.6
2018-09-29T02:26:20.356Z,1014.6
2018-09-29T02:27:21.716Z,1014.5
2018-09-29T02:28:23.070Z,1014.6
2018-09-29T02:29:24.430Z,1014.5
2018-09-29T02:30:25.791Z,1014.5
2018-09-29T02:31:27.147Z,1014.5
2018-09-29T02:32:28.507Z,1014.5
2018-09-29T02:33:29.862Z,1014.5
2018-09-29T02:34:31.222Z,1014.5
2018-09-29T02:35:32.581Z,1014.5
2018-09-29T02:36:33.927Z,1014.5
2018-09-29T02:37:35.317Z,1014.5
2018-09-29T02:38:36.686Z,1014.5
2018-09-29T02:39:38.027Z,1014.5
2018-09-29T02:40:39.388Z,1014.5
2018-09-29T02:41:40.752Z,1014.5
2018-09-29T02:42:42.106Z,1014.6
2018-09-29T02:43:43.458Z,1014.5
2018-09-29T02:44:44.809Z,1014.5
2018-09-29T02:45:46.162Z,1014.6
2018-09-29T02:46:47.530Z,1014.6
2018-09-29T02:47:48.903Z,1014.6
2018-09-29T02:48:50.245Z,1014.6
2018-09-29T02:49:51.587Z,1014.6
2018-09-29T02:50:52.946Z,1014.5
2018-09-29T02:51:54.300Z,1014.5
2018-09-29T02:52:55.662Z,1014.5
2018-09-29T02:53:57.007Z,1014.6
2018-09-29T02:54:58.367Z,1014.5
2018-09-29T02:55:59.717Z,1014.5
2018-09-29T02:57:01.075Z,1014.5
2018-09-29T02:58:02.429Z,1014.6
2018-09-29T02:59:03.777Z,1014.6
2018-09-29T03:00:05.128Z,1014.6
2018-09-29T03:01:06.479Z,1014.6
2018-09-29T03:02:07.835Z,1014.6
2018-09-29T03:03:09.185Z,1014.6
2018-09-29T03:04:10.537Z,1014.5
2018-09-29T03:05:11.895Z,1014.5
2018-09-29T03:06:13.763Z,1014.6
2018-09-29T03:07:15.216Z,1014.5
2018-09-29T03:08:16.440Z,1014.6
2018-09-29T03:09:17.797Z,1014.6
2018-09-29T03:10:19.157Z,1014.5
2018-09-29T03:11:20.506Z,1014.5
2018-09-29T03:12:21.861Z,1014.6
2018-09-29T03:13:23.231Z,1014.6
2018-09-29T03:14:24.575Z,1014.5
2018-09-29T03:15:25.934Z,1014.6
2018-09-29T03:16:27.272Z,1014.5
2018-09-29T03:17:28.638Z,1014.5
2018-09-29T03:18:29.977Z,1014.5
2018-09-29T03:19:31.325Z,1014.6
2018-09-29T03:20:32.672Z,1014.5
2018-09-29T03:21:34.026Z,1014.5
2018-09-29T03:22:35.371Z,1014.5
2018-09-29T03:23:36.726Z,1014.5
2018-09-29T03:24:38.077Z,1014.5
2018-09-29T03:25:39.442Z,1014.6
2018-09-29T03:26:40.791Z,1014.5
2018-09-29T03:27:42.167Z,1014.5
2018-09-29T03:28:43.535Z,1014.6
2018-09-29T03:29:44.884Z,1014.6
2018-09-29T03:30:46.248Z,1014.6
2018-09-29T03:31:47.720Z,1014.6
2018-09-29T03:32:48.918Z,1014.6
2018-09-29T03:33:50.266Z,1014.6
2018-09-29T03:34:51.628Z,1014.6
2018-09-29T03:35:53.000Z,1014.6
2018-09-29T03:36:54.325Z,1014.6
2018-09-29T03:37:55.691Z,1014.6
2018-09-29T03:38:57.067Z,1014.5
2018-09-29T03:39:58.421Z,1014.5
2018-09-29T03:40:59.762Z,1014.5
2018-09-29T03:42:01.119Z,1014.5
2018-09-29T03:43:02.472Z,1014.5
2018-09-29T03:44:04.439Z,1014.5
2018-09-29T03:45:05.793Z,1014.5
2018-09-29T03:46:07.152Z,1014.5
2018-09-29T03:47:08.513Z,1014.5
2018-09-29T03:48:09.874Z,1014.5
2018-09-29T03:49:11.234Z,1014.5
2018-09-29T03:50:12.592Z,1014.5
2018-09-29T03:51:13.952Z,1014.4
2018-09-29T03:52:15.312Z,1014.5
2018-09-29T03:53:16.668Z,1014.5
2018-09-29T03:54:18.012Z,1014.5
2018-09-29T03:55:19.378Z,1014.5
2018-09-29T03:56:43.486Z,1014.4
2018-09-29T03:57:44.839Z,1014.4
2018-09-29T03:58:46.183Z,1014.5
2018-09-29T03:59:47.534Z,1014.4
2018-09-29T04:00:48.897Z,1014.5
2018-09-29T04:01:50.237Z,1014.5
2018-09-29T04:02:51.593Z,1014.5
2018-09-29T04:03:52.942Z,1014.5
2018-09-29T04:04:54.303Z,1014.5
2018-09-29T04:05:55.652Z,1014.6
2018-09-29T04:06:57.008Z,1014.6
2018-09-29T04:07:58.363Z,1014.6
2018-09-29T04:08:59.712Z,1014.6
2018-09-29T04:10:01.069Z,1014.6
2018-09-29T04:11:02.436Z,1014.6
2018-09-29T04:12:03.784Z,1014.6
2018-09-29T04:13:05.137Z,1014.6
2018-09-29T04:14:06.481Z,1014.7
2018-09-29T04:15:07.840Z,1014.6
2018-09-29T04:16:09.196Z,1014.7
2018-09-29T04:17:10.553Z,1014.6
2018-09-29T04:18:11.918Z,1014.6
2018-09-29T04:19:13.267Z,1014.6
2018-09-29T04:20:14.618Z,1014.7
2018-09-29T04:21:15.972Z,1014.7
2018-09-29T04:22:17.317Z,1014.7
2018-09-29T04:23:18.674Z,1014.6
2018-09-29T04:24:20.019Z,1014.6
2018-09-29T04:25:21.381Z,1014.7
2018-09-29T04:26:22.737Z,1014.7
2018-09-29T04:27:24.093Z,1014.6
2018-09-29T04:28:25.468Z,1014.6
2018-09-29T04:29:26.823Z,1014.6
2018-09-29T04:30:28.171Z,1014.7
2018-09-29T04:31:29.546Z,1014.8
2018-09-29T04:32:30.900Z,1014.8
2018-09-29T04:33:32.256Z,1014.7
2018-09-29T04:34:33.617Z,1014.8
2018-09-29T04:35:34.966Z,1014.8
2018-09-29T04:36:36.316Z,1014.8
2018-09-29T04:37:37.676Z,1014.8
2018-09-29T04:38:39.028Z,1014.8
2018-09-29T04:39:40.385Z,1014.8
2018-09-29T04:40:41.735Z,1014.8
2018-09-29T04:41:43.081Z,1014.8
2018-09-29T04:42:44.438Z,1014.8
2018-09-29T04:43:45.791Z,1014.8
2018-09-29T04:44:47.148Z,1014.8
2018-09-29T04:45:48.500Z,1014.8
2018-09-29T04:46:49.855Z,1014.8
2018-09-29T04:47:51.208Z,1014.8
2018-09-29T04:48:52.561Z,1014.8
2018-09-29T04:49:53.915Z,1014.8
2018-09-29T04:50:55.256Z,1014.9
2018-09-29T04:51:56.616Z,1014.9
2018-09-29T04:52:57.964Z,1014.8
2018-09-29T04:53:59.313Z,1014.9
2018-09-29T04:55:00.672Z,1014.9
2018-09-29T04:56:02.036Z,1014.9
2018-09-29T04:57:03.379Z,1014.8
2018-09-29T04:58:04.743Z,1014.8
2018-09-29T04:59:06.123Z,1014.9
2018-09-29T05:00:07.496Z,1014.8
2018-09-29T05:01:08.858Z,1014.8
2018-09-29T05:02:10.222Z,1014.8
2018-09-29T05:03:11.588Z,1014.9
2018-09-29T05:04:12.947Z,1014.9
2018-09-29T05:05:14.313Z,1014.9
2018-09-29T05:06:15.673Z,1014.8
2018-09-29T05:07:17.033Z,1014.8
2018-09-29T05:08:18.403Z,1014.8
2018-09-29T05:09:19.759Z,1014.8
2018-09-29T05:10:21.104Z,1014.7
2018-09-29T05:11:22.460Z,1014.7
2018-09-29T05:12:23.807Z,1014.7
2018-09-29T05:13:25.177Z,1014.8
2018-09-29T05:14:26.534Z,1014.8
2018-09-29T05:15:27.893Z,1014.8
2018-09-29T05:16:29.243Z,1014.7
2018-09-29T05:17:30.602Z,1014.8
2018-09-29T05:18:31.957Z,1014.8
2018-09-29T05:19:33.316Z,1014.8
2018-09-29T05:20:34.681Z,1014.8
2018-09-29T05:21:36.044Z,1014.9
2018-09-29T05:22:37.396Z,1014.9
2018-09-29T05:23:38.758Z,1014.9
2018-09-29T05:24:40.122Z,1014.9
2018-09-29T05:25:41.468Z,1014.9
2018-09-29T05:26:42.822Z,1014.9
2018-09-29T05:27:44.187Z,1014.9
2018-09-29T05:28:45.548Z,1014.9
2018-09-29T05:29:46.899Z,1014.9
2018-09-29T05:30:48.265Z,1014.9
2018-09-29T05:31:49.618Z,1014.9
2018-09-29T05:32:50.967Z,1014.9
2018-09-29T05:33:52.340Z,1014.9
2018-09-29T05:34:53.692Z,1014.9
2018-09-29T05:35:55.048Z,1014.9
2018-09-29T05:36:56.398Z,1014.9
2018-09-29T05:37:57.757Z,1014.9
2018-09-29T05:38:59.117Z,1014.9
2018-09-29T05:40:00.504Z,1014.9
2018-09-29T05:41:01.864Z,1015.0
2018-09-29T05:42:03.217Z,1014.9
2018-09-29T05:43:04.575Z,1014.9
2018-09-29T05:44:05.944Z,1014.9
2018-09-29T05:45:07.297Z,1015.0
2018-09-29T05:46:08.645Z,1015.0
2018-09-29T05:47:10.017Z,1015.0
2018-09-29T05:48:11.406Z,1015.0
2018-09-29T05:49:12.748Z,1015.0
2018-09-29T05:50:14.100Z,1015.0
2018-09-29T05:51:15.455Z,1014.9
2018-09-29T05:52:16.820Z,1015.0
2018-09-29T05:53:18.173Z,1015.0
2018-09-29T05:54:19.537Z,1015.0
2018-09-29T05:55:20.888Z,1015.0
2018-09-29T05:56:22.239Z,1015.0
2018-09-29T05:57:23.608Z,1015.1
2018-09-29T05:58:24.972Z,1015.0
2018-09-29T05:59:26.323Z,1015.1
2018-09-29T06:00:27.725Z,1015.1
2018-09-29T06:01:29.050Z,1015.0
2018-09-29T06:02:30.404Z,1015.0
2018-09-29T06:03:31.764Z,1015.1
2018-09-29T06:04:33.137Z,1015.1
2018-09-29T06:05:35.242Z,1015.1
2018-09-29T06:06:36.580Z,1015.1
2018-09-29T06:07:38.405Z,1015.1
2018-09-29T06:08:39.803Z,1015.1
2018-09-29T06:09:41.196Z,1015.1
2018-09-29T06:10:42.555Z,1015.2
2018-09-29T06:11:43.919Z,1015.2
2018-09-29T06:12:45.295Z,1015.2
2018-09-29T06:13:46.651Z,1015.1
2018-09-29T06:14:48.019Z,1015.2
2018-09-29T06:15:49.382Z,1015.2
2018-09-29T06:16:50.737Z,1015.2
2018-09-29T06:17:52.108Z,1015.2
2018-09-29T06:18:53.469Z,1015.2
2018-09-29T06:19:54.840Z,1015.2
2018-09-29T06:20:56.259Z,1015.2
2018-09-29T06:21:57.520Z,1015.2
2018-09-29T06:22:58.874Z,1015.2
2018-09-29T06:24:00.266Z,1015.1
2018-09-29T06:25:01.636Z,1015.1
2018-09-29T06:26:03.050Z,1015.2
2018-09-29T06:27:04.418Z,1015.2
2018-09-29T06:28:05.793Z,1015.2
2018-09-29T06:29:07.150Z,1015.2
2018-09-29T06:30:08.513Z,1015.2
2018-09-29T06:31:09.909Z,1015.2
2018-09-29T06:32:13.444Z,1015.2
2018-09-29T06:33:15.160Z,1015.2
2018-09-29T06:34:23.391Z,1015.3
2018-09-29T06:35:24.709Z,1015.3
2018-09-29T06:36:26.070Z,1015.3
2018-09-29T06:37:27.429Z,1015.3
2018-09-29T06:38:28.790Z,1015.3
2018-09-29T06:39:30.166Z,1015.3
2018-09-29T06:40:31.529Z,1015.3
2018-09-29T06:41:32.900Z,1015.3
2018-09-29T06:42:34.264Z,1015.3
2018-09-29T06:43:35.623Z,1015.4
2018-09-29T06:44:36.976Z,1015.3
2018-09-29T06:45:38.350Z,1015.4
2018-09-29T06:46:39.705Z,1015.4
2018-09-29T06:47:41.107Z,1015.4
2018-09-29T06:48:42.423Z,1015.4
2018-09-29T06:49:43.789Z,1015.4
2018-09-29T06:50:45.149Z,1015.5
2018-09-29T06:51:46.505Z,1015.5
2018-09-29T06:52:47.873Z,1015.5
2018-09-29T06:53:49.239Z,1015.6
2018-09-29T06:54:50.652Z,1015.6
2018-09-29T06:55:52.001Z,1015.5
2018-09-29T06:56:53.365Z,1015.6
2018-09-29T06:57:54.731Z,1015.5
2018-09-29T06:58:56.088Z,1015.6
2018-09-29T06:59:57.456Z,1015.6
2018-09-29T07:00:58.834Z,1015.5
2018-09-29T07:02:00.200Z,1015.6
2018-09-29T07:03:01.625Z,1015.6
2018-09-29T07:04:02.938Z,1015.6
2018-09-29T07:05:04.310Z,1015.6
2018-09-29T07:06:05.673Z,1015.5
2018-09-29T07:07:07.033Z,1015.5
2018-09-29T07:08:08.404Z,1015.6
2018-09-29T07:09:09.778Z,1015.5
2018-09-29T07:10:11.141Z,1015.6
2018-09-29T07:11:12.506Z,1015.5
2018-09-29T07:12:14.068Z,1015.6
2018-09-29T07:13:16.661Z,1015.6
2018-09-29T07:14:18.078Z,1015.6
2018-09-29T07:15:19.597Z,1015.6
2018-09-29T07:16:20.961Z,1015.6
2018-09-29T07:17:22.331Z,1015.6
2018-09-29T07:18:23.700Z,1015.5
2018-09-29T07:19:25.071Z,1015.5
2018-09-29T07:20:26.425Z,1015.5
2018-09-29T07:21:27.826Z,1015.5
2018-09-29T07:22:29.162Z,1015.5
2018-09-29T07:23:30.526Z,1015.5
2018-09-29T07:24:31.913Z,1015.6
2018-09-29T07:25:33.358Z,1015.5
2018-09-29T07:26:34.670Z,1015.6
2018-09-29T07:27:36.076Z,1015.6
2018-09-29T07:28:37.450Z,1015.5
2018-09-29T07:29:38.824Z,1015.6
2018-09-29T07:30:40.194Z,1015.6
2018-09-29T07:31:41.568Z,1015.6
2018-09-29T07:32:43.521Z,1015.6
2018-09-29T07:33:44.895Z,1015.6
2018-09-29T07:34:46.264Z,1015.6
2018-09-29T07:35:47.618Z,1015.5
2018-09-29T07:36:48.995Z,1015.6
2018-09-29T07:37:50.370Z,1015.6
2018-09-29T07:38:51.738Z,1015.5
2018-09-29T07:39:53.119Z,1015.5
2018-09-29T07:40:54.489Z,1015.5
2018-09-29T07:41:55.861Z,1015.6
2018-09-29T07:42:57.241Z,1015.6
2018-09-29T07:43:58.619Z,1015.6
2018-09-29T07:44:59.999Z,1015.7
2018-09-29T07:46:01.370Z,1015.7
2018-09-29T07:47:02.736Z,1015.7
2018-09-29T07:48:04.111Z,1015.7
2018-09-29T07:49:05.511Z,1015.8
2018-09-29T07:50:06.854Z,1015.7
2018-09-29T07:51:08.233Z,1015.7
2018-09-29T07:52:09.610Z,1015.8
2018-09-29T07:53:10.989Z,1015.7
2018-09-29T07:54:12.373Z,1015.7
2018-09-29T07:55:13.754Z,1015.8
2018-09-29T07:56:15.190Z,1015.8
2018-09-29T07:57:16.505Z,1015.8
2018-09-29T07:58:17.865Z,1015.8
2018-09-29T07:59:19.250Z,1015.8
2018-09-29T08:00:20.619Z,1015.9
2018-09-29T08:01:21.999Z,1015.9
2018-09-29T08:02:23.365Z,1015.8
2018-09-29T08:03:24.744Z,1015.8
2018-09-29T08:04:26.119Z,1015.9
2018-09-29T08:05:27.495Z,1015.8
2018-09-29T08:06:29.071Z,1015.9
2018-09-29T08:07:31.124Z,1015.9
2018-09-29T08:08:32.506Z,1015.8
2018-09-29T08:09:33.878Z,1015.8
2018-09-29T08:10:35.264Z,1015.8
2018-09-29T08:11:36.644Z,1015.8
2018-09-29T08:12:38.021Z,1015.7
2018-09-29T08:13:39.394Z,1015.7
2018-09-29T08:14:40.794Z,1015.7
2018-09-29T08:15:42.198Z,1015.8
2018-09-29T08:16:44.353Z,1015.7
2018-09-29T08:17:45.728Z,1015.6
2018-09-29T08:18:47.097Z,1015.7
2018-09-29T08:19:48.659Z,1015.7
2018-09-29T08:20:50.035Z,1015.7
2018-09-29T08:21:51.975Z,1015.7
2018-09-29T08:22:53.356Z,1015.7
2018-09-29T08:23:54.730Z,1015.7
2018-09-29T08:24:56.106Z,1015.8
2018-09-29T08:25:57.485Z,1015.7
2018-09-29T08:26:58.860Z,1015.7
2018-09-29T08:28:00.252Z,1015.7
2018-09-29T08:29:01.625Z,1015.7
2018-09-29T08:30:03.011Z,1015.7
2018-09-29T08:31:04.386Z,1015.7
2018-09-29T08:32:05.755Z,1015.8
2018-09-29T08:33:07.125Z,1015.7
2018-09-29T08:34:08.504Z,1015.8
2018-09-29T08:35:09.872Z,1015.7
2018-09-29T08:36:11.260Z,1015.7
2018-09-29T08:37:12.629Z,1015.7
2018-09-29T08:38:13.998Z,1015.6
2018-09-29T08:39:15.366Z,1015.6
2018-09-29T08:40:16.758Z,1015.7
2018-09-29T08:41:18.130Z,1015.7
2018-09-29T08:42:19.506Z,1015.6
2018-09-29T08:43:20.883Z,1015.7
2018-09-29T08:44:22.257Z,1015.7
2018-09-29T08:45:23.637Z,1015.6
2018-09-29T08:46:25.038Z,1015.6
2018-09-29T08:47:26.449Z,1015.6
2018-09-29T08:48:27.820Z,1015.6
2018-09-29T08:49:29.860Z,1015.7
2018-09-29T08:50:31.238Z,1015.6
2018-09-29T08:51:32.619Z,1015.6
2018-09-29T08:52:33.990Z,1015.6
2018-09-29T08:53:35.405Z,1015.7
2018-09-29T08:54:36.710Z,1015.7
2018-09-29T08:55:38.076Z,1015.7
2018-09-29T08:56:39.459Z,1015.7
2018-09-29T08:57:40.840Z,1015.7
2018-09-29T08:58:42.655Z,1015.6
2018-09-29T08:59:43.920Z,1015.5
2018-09-29T09:00:45.301Z,1015.6
2018-09-29T09:01:46.684Z,1015.5
2018-09-29T09:02:48.176Z,1015.6
2018-09-29T09:03:49.611Z,1015.5
2018-09-29T09:04:50.924Z,1015.4
2018-09-29T09:05:52.311Z,1015.6
2018-09-29T09:06:53.702Z,1015.6
2018-09-29T09:07:55.075Z,1015.7
2018-09-29T09:08:56.450Z,1015.6
2018-09-29T09:09:57.862Z,1015.4
2018-09-29T09:10:59.209Z,1015.4
2018-09-29T09:12:00.604Z,1015.3
2018-09-29T09:13:01.990Z,1015.3
2018-09-29T09:14:03.372Z,1015.3
2018-09-29T09:15:04.765Z,1015.5
2018-09-29T09:16:06.136Z,1015.4
2018-09-29T09:17:07.511Z,1015.5
2018-09-29T09:18:08.885Z,1015.5
2018-09-29T09:19:10.256Z,1015.5
2018-09-29T09:20:11.641Z,1015.6
2018-09-29T09:21:13.012Z,1015.6
2018-09-29T09:22:14.391Z,1015.5
2018-09-29T09:23:15.817Z,1015.4
2018-09-29T09:24:17.183Z,1015.3
2018-09-29T09:25:18.505Z,1015.3
2018-09-29T09:26:19.874Z,1015.4
2018-09-29T09:27:21.256Z,1015.4
2018-09-29T09:28:22.640Z,1015.5
2018-09-29T09:29:24.021Z,1015.3
2018-09-29T09:30:25.409Z,1015.3
2018-09-29T09:31:26.785Z,1015.3
2018-09-29T09:32:28.161Z,1015.3
2018-09-29T09:33:29.541Z,1015.3
2018-09-29T09:34:30.910Z,1015.3
2018-09-29T09:35:32.287Z,1015.2
2018-09-29T09:36:33.682Z,1015.4
2018-09-29T09:37:35.050Z,1015.4
2018-09-29T09:38:36.424Z,1015.4
2018-09-29T09:39:37.804Z,1015.4
2018-09-29T09:40:39.205Z,1015.3
2018-09-29T09:41:40.586Z,1015.2
2018-09-29T09:42:41.960Z,1015.2
2018-09-29T09:43:43.341Z,1015.2
2018-09-29T09:44:44.706Z,1015.3
2018-09-29T09:45:46.091Z,1015.3
2018-09-29T09:46:47.486Z,1015.2
2018-09-29T09:47:48.858Z,1015.2
2018-09-29T09:48:50.240Z,1015.2
2018-09-29T09:49:51.619Z,1015.1
2018-09-29T09:50:53.004Z,1015.1
2018-09-29T09:51:54.371Z,1015.1
2018-09-29T09:52:55.745Z,1014.9
2018-09-29T09:53:57.125Z,1014.9
2018-09-29T09:54:59.275Z,1015.1
2018-09-29T09:56:00.709Z,1015.1
2018-09-29T09:57:02.007Z,1015.1
2018-09-29T09:58:03.376Z,1015.0
2018-09-29T09:59:04.757Z,1015.0
2018-09-29T10:00:06.125Z,1015.0
2018-09-29T10:01:07.526Z,1014.9
2018-09-29T10:02:08.896Z,1015.0
2018-09-29T10:03:10.267Z,1015.1
2018-09-29T10:04:11.647Z,1015.1
2018-09-29T10:05:13.044Z,1015.0
2018-09-29T10:06:14.424Z,1015.0
2018-09-29T10:07:15.808Z,1014.9
2018-09-29T10:08:17.181Z,1015.0
2018-09-29T10:09:18.557Z,1015.1
2018-09-29T10:10:19.936Z,1015.1
2018-09-29T10:11:21.306Z,1014.9
2018-09-29T10:12:22.695Z,1014.9
2018-09-29T10:13:24.078Z,1015.1
2018-09-29T10:14:25.458Z,1015.1
2018-09-29T10:15:27.656Z,1015.0
2018-09-29T10:16:29.042Z,1015.1
2018-09-29T10:17:30.486Z,1015.1
2018-09-29T10:18:31.767Z,1015.0
2018-09-29T10:19:33.140Z,1015.0
2018-09-29T10:20:34.516Z,1015.0
2018-09-29T10:21:35.908Z,1015.0
2018-09-29T10:22:37.301Z,1015.0
2018-09-29T10:23:38.687Z,1014.9
2018-09-29T10:24:40.071Z,1015.0
2018-09-29T10:25:41.446Z,1015.0
2018-09-29T10:26:42.824Z,1015.0
2018-09-29T10:27:44.250Z,1014.9
2018-09-29T10:28:45.782Z,1014.9
2018-09-29T10:29:47.301Z,1014.9
2018-09-29T10:30:48.963Z,1014.9
2018-09-29T10:31:50.341Z,1014.8
2018-09-29T10:32:51.742Z,1014.8
2018-09-29T10:33:53.122Z,1014.9
2018-09-29T10:34:54.499Z,1014.8
2018-09-29T10:35:55.885Z,1014.9
2018-09-29T10:36:57.260Z,1015.2
2018-09-29T10:37:58.655Z,1014.9
2018-09-29T10:39:00.137Z,1014.9
2018-09-29T10:40:01.701Z,1014.8
2018-09-29T10:41:03.086Z,1014.8
2018-09-29T10:42:04.466Z,1014.8
2018-09-29T10:43:05.843Z,1014.7
2018-09-29T10:44:07.287Z,1014.7
2018-09-29T10:45:08.558Z,1014.7
2018-09-29T10:46:09.948Z,1014.5
2018-09-29T10:47:11.331Z,1014.6
2018-09-29T10:48:12.714Z,1014.7
2018-09-29T10:49:14.056Z,1014.7
2018-09-29T10:50:15.437Z,1014.6
2018-09-29T10:51:16.828Z,1014.6
2018-09-29T10:52:18.196Z,1014.6
2018-09-29T10:53:19.584Z,1014.6
2018-09-29T10:54:20.985Z,1014.7
2018-09-29T10:55:22.362Z,1014.7
2018-09-29T10:56:23.747Z,1014.6
2018-09-29T10:57:25.118Z,1014.6
2018-09-29T10:58:26.502Z,1014.6
2018-09-29T10:59:27.885Z,1014.5
2018-09-29T11:00:29.261Z,1014.4
2018-09-29T11:01:30.651Z,1014.4
2018-09-29T11:02:32.029Z,1014.4
2018-09-29T11:03:33.411Z,1014.4
2018-09-29T11:04:34.797Z,1014.5
2018-09-29T11:05:36.223Z,1014.5
2018-09-29T11:06:37.655Z,1014.5
2018-09-29T11:07:39.053Z,1014.5
2018-09-29T11:08:40.427Z,1014.4
2018-09-29T11:09:43.488Z,1014.4
2018-09-29T11:10:44.167Z,1014.3
2018-09-29T11:11:45.557Z,1014.1
2018-09-29T11:12:46.954Z,1014.3
2018-09-29T11:13:48.334Z,1014.4
2018-09-29T11:14:49.710Z,1014.4
2018-09-29T11:15:51.102Z,1014.4
2018-09-29T11:16:52.527Z,1014.4
2018-09-29T11:17:53.895Z,1014.3
2018-09-29T11:18:55.281Z,1014.4
2018-09-29T11:19:56.647Z,1014.3
2018-09-29T11:20:58.114Z,1014.2
2018-09-29T11:21:59.417Z,1014.3
2018-09-29T11:23:00.803Z,1014.2
2018-09-29T11:24:02.181Z,1014.2
2018-09-29T11:25:03.560Z,1014.3
2018-09-29T11:26:04.942Z,1014.2
2018-09-29T11:27:06.316Z,1014.1
2018-09-29T11:28:07.710Z,1014.2
2018-09-29T11:29:09.096Z,1014.2
2018-09-29T11:30:10.456Z,1014.1
2018-09-29T11:31:12.341Z,1014.2
2018-09-29T11:32:14.394Z,1014.1
2018-09-29T11:33:15.786Z,1014.1
2018-09-29T11:34:17.175Z,1014.1
2018-09-29T11:35:18.552Z,1014.1
2018-09-29T11:36:19.942Z,1014.1
2018-09-29T11:37:21.319Z,1014.1
2018-09-29T11:38:22.692Z,1013.9
2018-09-29T11:39:24.205Z,1014.0
2018-09-29T11:40:25.535Z,1014.0
2018-09-29T11:41:26.892Z,1013.9
2018-09-29T11:42:28.282Z,1013.8
2018-09-29T11:43:29.774Z,1013.7
2018-09-29T11:44:31.145Z,1013.8
2018-09-29T11:45:32.534Z,1013.8
2018-09-29T11:46:33.898Z,1013.7
2018-09-29T11:47:35.342Z,1013.7
2018-09-29T11:48:36.724Z,1013.6
2018-09-29T11:49:38.101Z,1013.7
2018-09-29T11:50:39.487Z,1013.6
2018-09-29T11:51:40.862Z,1013.6
2018-09-29T11:52:42.241Z,1013.7
2018-09-29T11:53:43.648Z,1013.6
2018-09-29T11:54:45.028Z,1013.6
2018-09-29T11:55:46.427Z,1013.5
2018-09-29T11:56:47.818Z,1013.5
2018-09-29T11:57:49.187Z,1013.5
2018-09-29T11:58:50.606Z,1013.6
2018-09-29T11:59:51.982Z,1013.6
2018-09-29T12:00:53.366Z,1013.7
2018-09-29T12:01:54.787Z,1013.6
2018-09-29T12:02:56.181Z,1013.5
2018-09-29T12:03:57.570Z,1013.5
2018-09-29T12:04:58.952Z,1013.5
2018-09-29T12:06:00.385Z,1013.5
2018-09-29T12:07:01.779Z,1013.4
2018-09-29T12:08:03.098Z,1013.3
2018-09-29T12:09:04.453Z,1013.5
2018-09-29T12:10:05.833Z,1013.4
2018-09-29T12:11:07.272Z,1013.3
2018-09-29T12:12:08.642Z,1013.3
2018-09-29T12:13:10.029Z,1013.3
2018-09-29T12:14:11.971Z,1013.1
2018-09-29T12:15:13.363Z,1013.3
2018-09-29T12:16:14.746Z,1013.2
2018-09-29T12:17:16.158Z,1013.3
2018-09-29T12:18:17.567Z,1013.3
2018-09-29T12:19:18.953Z,1013.1
2018-09-29T12:20:20.375Z,1013.2
2018-09-29T12:21:21.771Z,1013.1
2018-09-29T12:22:23.209Z,1013.2
2018-09-29T12:23:24.482Z,1013.2
2018-09-29T12:24:25.858Z,1013.2
2018-09-29T12:25:27.256Z,1013.2
2018-09-29T12:26:28.642Z,1013.1
2018-09-29T12:27:30.008Z,1013.1
2018-09-29T12:28:31.400Z,1013.1
2018-09-29T12:29:32.810Z,1013.0
2018-09-29T12:30:34.144Z,1013.1
2018-09-29T12:31:35.543Z,1013.1
2018-09-29T12:32:36.928Z,1013.1
2018-09-29T12:33:38.307Z,1013.0
2018-09-29T12:34:39.701Z,1013.2
2018-09-29T12:35:41.079Z,1013.1
2018-09-29T12:36:42.505Z,1013.1
2018-09-29T12:37:44.059Z,1013.1
2018-09-29T12:38:45.279Z,1013.1
2018-09-29T12:39:46.665Z,1013.1
2018-09-29T12:40:48.062Z,1013.2
2018-09-29T12:41:49.434Z,1013.1
2018-09-29T12:42:50.821Z,1013.0
2018-09-29T12:43:52.196Z,1013.1
2018-09-29T12:44:53.627Z,1013.1
2018-09-29T12:45:54.912Z,1013.1